createdAt,value
2023-04-16T00:00:11.453Z,87.12
2023-04-16T00:03:00.775Z,86.58
2023-04-16T00:05:29.611Z,86.70
2023-04-16T00:07:58.533Z,86.48
2023-04-16T00:10:27.205Z,86.59
2023-04-16T00:12:56.131Z,87.06
2023-04-16T00:15:26.137Z,86.72
2023-04-16T00:17:55.148Z,86.57
2023-04-16T00:20:23.862Z,86.69
2023-04-16T00:22:52.950Z,87.40
2023-04-16T00:25:21.824Z,87.38
2023-04-16T00:27:50.778Z,87.69
2023-04-16T00:30:19.635Z,87.36
2023-04-16T00:32:49.964Z,87.97
2023-04-16T00:35:18.861Z,87.79
2023-04-16T00:37:47.765Z,87.58
2023-04-16T00:40:16.425Z,87.41
2023-04-16T00:42:45.634Z,87.82
2023-04-16T00:45:14.369Z,88.05
2023-04-16T00:47:43.652Z,88.06
2023-04-16T00:50:15.269Z,88.07
2023-04-16T00:52:44.841Z,88.48
2023-04-16T00:55:13.636Z,88.35
2023-04-16T00:57:42.702Z,88.34
2023-04-16T01:00:13.112Z,88.00
2023-04-16T01:02:42.570Z,88.17
2023-04-16T01:05:11.689Z,88.33
2023-04-16T01:07:42.019Z,88.34
2023-04-16T01:10:11.062Z,88.57
2023-04-16T01:12:39.956Z,88.44
2023-04-16T01:15:11.346Z,88.12
2023-04-16T01:17:40.628Z,87.91
2023-04-16T01:20:10.194Z,87.45
2023-04-16T01:22:40.471Z,88.09
2023-04-16T01:25:09.537Z,87.81
2023-04-16T01:27:38.907Z,88.23
2023-04-16T01:30:09.487Z,88.34
2023-04-16T01:32:49.716Z,88.01
2023-04-16T01:35:19.202Z,88.06
2023-04-16T01:37:51.736Z,88.16
2023-04-16T01:40:20.976Z,88.36
2023-04-16T01:42:51.137Z,88.37
2023-04-16T01:45:19.973Z,88.42
2023-04-16T01:47:51.331Z,87.87
2023-04-16T01:50:20.574Z,88.00
2023-04-16T01:52:51.119Z,88.19
2023-04-16T01:55:20.112Z,88.71
2023-04-16T01:57:49.019Z,88.30
2023-04-16T02:00:18.005Z,88.44
2023-04-16T02:02:50.237Z,88.67
2023-04-16T02:05:27.397Z,88.72
2023-04-16T02:07:57.691Z,88.75
2023-04-16T02:10:26.442Z,88.62
2023-04-16T02:12:56.545Z,88.67
2023-04-16T02:15:25.416Z,88.76
2023-04-16T02:17:57.034Z,89.02
2023-04-16T02:20:27.276Z,89.06
2023-04-16T02:23:02.186Z,88.53
2023-04-16T02:25:31.337Z,88.50
2023-04-16T02:28:00.804Z,89.12
2023-04-16T02:30:48.452Z,89.58
2023-04-16T02:33:20.295Z,89.54
2023-04-16T02:35:57.043Z,89.37
2023-04-16T02:38:27.302Z,89.60
2023-04-16T02:40:56.275Z,89.93
2023-04-16T02:43:25.204Z,90.04
2023-04-16T02:45:53.853Z,90.00
2023-04-16T02:48:22.853Z,90.27
2023-04-16T02:50:51.636Z,89.86
2023-04-16T02:53:21.455Z,89.88
2023-04-16T02:55:54.611Z,89.74
2023-04-16T02:58:25.780Z,90.04
2023-04-16T03:00:56.213Z,90.29
2023-04-16T03:03:25.498Z,90.32
2023-04-16T03:05:54.174Z,90.34
2023-04-16T03:08:23.193Z,91.14
2023-04-16T03:10:53.222Z,90.97
2023-04-16T03:13:22.419Z,91.32
2023-04-16T03:15:51.349Z,91.05
2023-04-16T03:18:20.350Z,91.43
2023-04-16T03:20:53.444Z,90.82
2023-04-16T03:23:22.408Z,90.96
2023-04-16T03:25:53.490Z,91.26
2023-04-16T03:28:22.372Z,91.50
2023-04-16T03:30:54.215Z,91.52
2023-04-16T03:33:23.257Z,91.10
2023-04-16T03:36:00.187Z,90.99
2023-04-16T03:38:32.666Z,91.10
2023-04-16T03:41:03.082Z,90.84
2023-04-16T03:43:34.965Z,90.76
2023-04-16T03:46:03.730Z,91.07
2023-04-16T03:48:32.761Z,91.14
2023-04-16T03:51:01.574Z,90.68
2023-04-16T03:53:31.487Z,90.76
2023-04-16T03:56:00.193Z,90.71
2023-04-16T03:58:32.712Z,90.23
2023-04-16T04:01:01.500Z,90.33
2023-04-16T04:03:30.762Z,90.65
2023-04-16T04:05:59.616Z,90.44
2023-04-16T04:08:31.991Z,89.98
2023-04-16T04:11:00.606Z,89.90
2023-04-16T04:13:30.453Z,90.40
2023-04-16T04:16:01.636Z,90.12
2023-04-16T04:18:31.374Z,90.17
2023-04-16T04:21:01.480Z,90.18
2023-04-16T04:23:32.439Z,90.08
2023-04-16T04:26:03.849Z,89.86
2023-04-16T04:28:34.142Z,89.60
2023-04-16T04:31:04.309Z,89.84
2023-04-16T04:33:33.756Z,89.53
2023-04-16T04:36:02.442Z,89.18
2023-04-16T04:38:31.908Z,88.79
2023-04-16T04:41:00.887Z,88.99
2023-04-16T04:43:36.329Z,89.27
2023-04-16T04:46:06.624Z,88.88
2023-04-16T04:48:36.028Z,87.93
2023-04-16T04:51:05.501Z,88.20
2023-04-16T04:53:35.315Z,88.35
2023-04-16T04:56:12.437Z,88.39
2023-04-16T04:58:42.791Z,88.04
2023-04-16T05:01:12.898Z,87.60
2023-04-16T05:03:41.999Z,87.47
2023-04-16T05:06:10.692Z,87.65
2023-04-16T05:08:39.619Z,87.02
2023-04-16T05:11:08.217Z,86.33
2023-04-16T05:13:37.107Z,85.89
2023-04-16T05:16:06.626Z,84.73
2023-04-16T05:18:36.936Z,85.27
2023-04-16T05:21:06.489Z,85.47
2023-04-16T05:23:35.493Z,84.83
2023-04-16T05:26:04.181Z,84.95
2023-04-16T05:28:33.885Z,84.44
2023-04-16T05:31:02.598Z,84.35
2023-04-16T05:33:31.616Z,83.70
2023-04-16T05:36:01.595Z,83.72
2023-04-16T05:38:30.641Z,82.89
2023-04-16T05:41:00.133Z,81.80
2023-04-16T05:43:29.141Z,80.94
2023-04-16T05:45:57.831Z,81.85
2023-04-16T05:48:26.815Z,81.93
2023-04-16T05:50:55.452Z,81.29
2023-04-16T05:53:25.974Z,81.20
2023-04-16T05:55:54.754Z,81.47
2023-04-16T05:58:23.655Z,81.34
2023-04-16T06:00:52.405Z,81.19
2023-04-16T06:03:21.459Z,81.12
2023-04-16T06:05:50.234Z,80.96
2023-04-16T06:08:19.244Z,80.90
2023-04-16T06:10:49.810Z,81.08
2023-04-16T06:13:18.822Z,81.71
2023-04-16T06:15:47.983Z,81.06
2023-04-16T06:18:16.931Z,80.93
2023-04-16T06:20:45.702Z,80.50
2023-04-16T06:23:14.786Z,80.01
2023-04-16T06:25:43.390Z,79.82
2023-04-16T06:28:13.688Z,79.98
2023-04-16T06:30:44.493Z,80.02
2023-04-16T06:33:13.914Z,79.98
2023-04-16T06:35:42.582Z,78.88
2023-04-16T06:38:11.553Z,79.00
2023-04-16T06:40:40.381Z,79.33
2023-04-16T06:43:09.304Z,78.97
2023-04-16T06:45:39.285Z,79.05
2023-04-16T06:48:08.399Z,78.96
2023-04-16T06:50:37.656Z,78.21
2023-04-16T06:53:06.687Z,78.02
2023-04-16T06:55:35.662Z,77.89
2023-04-16T06:58:04.708Z,77.64
2023-04-16T07:00:33.609Z,77.69
2023-04-16T07:03:04.162Z,78.11
2023-04-16T07:05:33.193Z,77.51
2023-04-16T07:08:02.121Z,76.71
2023-04-16T07:10:31.361Z,76.19
2023-04-16T07:13:01.589Z,75.62
2023-04-16T07:15:30.481Z,75.88
2023-04-16T07:17:59.504Z,75.90
2023-04-16T07:20:29.666Z,76.01
2023-04-16T07:22:59.422Z,75.90
2023-04-16T07:25:28.156Z,76.07
2023-04-16T07:27:57.184Z,75.91
2023-04-16T07:30:25.909Z,75.65
2023-04-16T07:32:55.841Z,74.83
2023-04-16T07:35:24.540Z,74.96
2023-04-16T07:37:54.812Z,75.28
2023-04-16T07:40:24.987Z,74.30
2023-04-16T07:42:54.161Z,75.02
2023-04-16T07:45:22.914Z,75.46
2023-04-16T07:47:51.953Z,75.27
2023-04-16T07:50:20.840Z,75.10
2023-04-16T07:52:49.856Z,74.73
2023-04-16T07:55:19.937Z,75.18
2023-04-16T07:57:48.985Z,75.47
2023-04-16T08:00:18.004Z,75.91
2023-04-16T08:02:47.161Z,76.38
2023-04-16T08:05:15.950Z,75.89
2023-04-16T08:07:44.901Z,76.06
2023-04-16T08:10:13.993Z,74.65
2023-04-16T08:12:44.545Z,74.78
2023-04-16T08:15:13.555Z,74.39
2023-04-16T08:17:42.634Z,75.24
2023-04-16T08:20:14.983Z,75.59
2023-04-16T08:22:46.840Z,75.92
2023-04-16T08:25:16.249Z,75.31
2023-04-16T08:27:46.541Z,76.07
2023-04-16T08:30:16.423Z,73.97
2023-04-16T08:32:47.374Z,73.52
2023-04-16T08:35:17.576Z,73.20
2023-04-16T08:37:46.599Z,72.56
2023-04-16T08:40:15.304Z,73.03
2023-04-16T08:42:55.811Z,71.54
2023-04-16T08:45:28.490Z,71.32
2023-04-16T08:47:57.936Z,70.71
2023-04-16T08:50:28.398Z,69.89
2023-04-16T08:53:01.356Z,70.32
2023-04-16T08:55:38.614Z,70.98
2023-04-16T08:58:14.597Z,70.60
2023-04-16T09:00:46.130Z,70.58
2023-04-16T09:03:15.204Z,70.59
2023-04-16T09:05:45.219Z,70.11
2023-04-16T09:08:14.362Z,70.34
2023-04-16T09:10:44.423Z,70.69
2023-04-16T09:13:17.003Z,70.10
2023-04-16T09:15:46.048Z,69.36
2023-04-16T09:18:14.949Z,69.49
2023-04-16T09:20:43.735Z,69.60
2023-04-16T09:23:12.791Z,68.25
2023-04-16T09:25:41.476Z,66.62
2023-04-16T09:28:11.048Z,66.38
2023-04-16T09:30:41.321Z,66.20
2023-04-16T09:33:22.590Z,66.46
2023-04-16T09:35:53.992Z,67.14
2023-04-16T09:38:23.193Z,65.66
2023-04-16T09:41:08.435Z,66.75
2023-04-16T09:43:38.130Z,66.83
2023-04-16T09:46:08.732Z,66.78
2023-04-16T09:48:38.280Z,67.85
2023-04-16T09:51:08.363Z,67.43
2023-04-16T09:53:37.377Z,66.29
2023-04-16T09:56:08.060Z,65.99
2023-04-16T09:58:38.544Z,67.20
2023-04-16T10:01:11.488Z,66.79
2023-04-16T10:03:42.061Z,66.44
2023-04-16T10:06:18.154Z,66.51
2023-04-16T10:08:50.468Z,67.70
2023-04-16T10:11:21.945Z,66.84
2023-04-16T10:13:51.532Z,65.76
2023-04-16T10:16:23.518Z,64.92
2023-04-16T10:18:54.077Z,64.61
2023-04-16T10:21:23.591Z,64.30
2023-04-16T10:23:53.823Z,65.06
2023-04-16T10:26:23.425Z,64.89
2023-04-16T10:28:53.040Z,63.81
2023-04-16T10:31:23.990Z,65.37
2023-04-16T10:33:53.227Z,64.10
2023-04-16T10:36:27.734Z,64.61
2023-04-16T10:39:00.948Z,64.39
2023-04-16T10:41:30.309Z,65.09
2023-04-16T10:44:09.716Z,64.33
2023-04-16T10:46:42.819Z,64.63
2023-04-16T10:49:17.794Z,64.66
2023-04-16T10:51:55.980Z,63.32
2023-04-16T10:54:27.703Z,63.44
2023-04-16T10:57:01.640Z,62.06
2023-04-16T10:59:34.978Z,61.64
2023-04-16T11:02:10.683Z,62.48
2023-04-16T11:04:43.483Z,61.37
2023-04-16T11:07:20.604Z,61.26
2023-04-16T11:09:56.248Z,60.88
2023-04-16T11:12:29.081Z,62.77
2023-04-16T11:15:02.423Z,62.98
2023-04-16T11:17:37.732Z,62.47
2023-04-16T11:20:19.001Z,61.77
2023-04-16T11:22:49.373Z,60.61
2023-04-16T11:25:22.691Z,60.50
2023-04-16T11:27:53.166Z,61.26
2023-04-16T11:30:32.000Z,61.77
2023-04-16T11:33:04.207Z,61.72
2023-04-16T11:35:33.477Z,60.25
2023-04-16T11:38:02.366Z,60.30
2023-04-16T11:40:32.325Z,61.23
2023-04-16T11:43:04.343Z,61.15
2023-04-16T11:45:33.411Z,60.20
2023-04-16T11:48:03.767Z,60.49
2023-04-16T11:50:32.851Z,60.98
2023-04-16T11:53:06.793Z,59.92
2023-04-16T11:55:45.383Z,59.90
2023-04-16T11:58:15.961Z,56.59
2023-04-16T12:00:46.204Z,56.20
2023-04-16T12:03:16.534Z,55.43
2023-04-16T12:05:47.290Z,54.94
2023-04-16T12:08:31.779Z,55.81
2023-04-16T12:11:00.868Z,54.98
2023-04-16T12:13:29.552Z,54.43
2023-04-16T12:15:58.655Z,54.45
2023-04-16T12:18:28.830Z,54.71
2023-04-16T12:20:57.929Z,53.97
2023-04-16T12:23:30.092Z,54.21
2023-04-16T12:26:02.531Z,54.41
2023-04-16T12:28:33.525Z,56.44
2023-04-16T12:31:03.417Z,54.17
2023-04-16T12:33:33.656Z,54.06
2023-04-16T12:36:04.665Z,55.47
2023-04-16T12:38:33.314Z,55.25
2023-04-16T12:41:02.427Z,54.70
2023-04-16T12:43:31.270Z,54.63
2023-04-16T12:46:02.229Z,55.30
2023-04-16T12:48:33.895Z,55.40
2023-04-16T12:51:02.946Z,55.98
2023-04-16T12:53:31.765Z,55.30
2023-04-16T12:56:00.679Z,55.25
2023-04-16T12:58:29.485Z,55.28
2023-04-16T13:00:58.531Z,54.68
2023-04-16T13:03:27.515Z,55.09
2023-04-16T13:05:58.156Z,53.29
2023-04-16T13:08:27.044Z,52.99
2023-04-16T13:10:55.978Z,53.42
2023-04-16T13:13:24.682Z,52.78
2023-04-16T13:15:53.685Z,53.08
2023-04-16T13:18:23.064Z,52.25
2023-04-16T13:20:52.083Z,52.30
2023-04-16T13:23:22.266Z,52.88
2023-04-16T13:25:51.244Z,51.96
2023-04-16T13:28:20.089Z,50.19
2023-04-16T13:30:49.408Z,49.39
2023-04-16T13:33:18.269Z,48.32
2023-04-16T13:35:47.473Z,48.81
2023-04-16T13:38:16.636Z,49.13
2023-04-16T13:40:47.045Z,48.60
2023-04-16T13:43:17.551Z,49.18
2023-04-16T13:45:47.069Z,51.30
2023-04-16T13:48:15.659Z,50.61
2023-04-16T13:50:44.589Z,51.22
2023-04-16T13:53:13.232Z,51.84
2023-04-16T13:55:42.249Z,51.89
2023-04-16T13:58:12.558Z,53.14
2023-04-16T14:00:41.524Z,53.29
2023-04-16T14:03:10.309Z,52.55
2023-04-16T14:05:39.428Z,53.46
2023-04-16T14:08:08.263Z,53.53
2023-04-16T14:10:37.384Z,53.51
2023-04-16T14:13:06.020Z,53.05
2023-04-16T14:15:36.372Z,51.19
2023-04-16T14:18:05.804Z,50.54
2023-04-16T14:20:34.878Z,50.14
2023-04-16T14:23:04.091Z,50.43
2023-04-16T14:25:33.449Z,50.77
2023-04-16T14:28:02.315Z,51.36
2023-04-16T14:30:31.331Z,52.28
2023-04-16T14:33:01.578Z,52.88
2023-04-16T14:35:30.729Z,53.34
2023-04-16T14:37:59.440Z,54.42
2023-04-16T14:40:28.423Z,55.02
2023-04-16T14:42:57.096Z,54.55
2023-04-16T14:45:30.001Z,54.44
2023-04-16T14:48:00.150Z,54.24
2023-04-16T14:50:29.463Z,54.85
2023-04-16T14:52:58.408Z,54.56
2023-04-16T14:55:28.031Z,54.21
2023-04-16T14:57:57.213Z,53.84
2023-04-16T15:00:26.438Z,53.09
2023-04-16T15:02:55.448Z,52.88
2023-04-16T15:05:26.192Z,52.81
2023-04-16T15:07:55.152Z,53.32
2023-04-16T15:10:24.421Z,53.60
2023-04-16T15:12:53.160Z,53.61
2023-04-16T15:15:22.406Z,53.80
2023-04-16T15:17:53.359Z,54.53
2023-04-16T15:20:22.539Z,54.02
2023-04-16T15:22:52.584Z,52.66
2023-04-16T15:25:21.677Z,53.89
2023-04-16T15:27:50.362Z,54.68
2023-04-16T15:30:19.819Z,54.20
2023-04-16T15:32:48.560Z,54.80
2023-04-16T15:35:17.715Z,54.30
2023-04-16T15:37:46.405Z,53.92
2023-04-16T15:40:18.875Z,53.87
2023-04-16T15:42:47.847Z,54.49
2023-04-16T15:45:16.770Z,55.16
2023-04-16T15:47:48.093Z,55.79
2023-04-16T15:50:17.287Z,55.60
2023-04-16T15:52:46.567Z,55.27
2023-04-16T15:55:18.412Z,55.32
2023-04-16T15:57:47.078Z,55.29
2023-04-16T16:00:17.271Z,54.96
2023-04-16T16:02:47.948Z,56.75
2023-04-16T16:05:18.704Z,55.21
2023-04-16T16:07:47.587Z,54.84
2023-04-16T16:10:17.976Z,56.26
2023-04-16T16:12:46.781Z,55.18
2023-04-16T16:15:15.775Z,55.51
2023-04-16T16:17:44.474Z,56.55
2023-04-16T16:20:14.680Z,55.98
2023-04-16T16:22:45.347Z,56.23
2023-04-16T16:25:14.384Z,56.47
2023-04-16T16:27:44.497Z,57.33
2023-04-16T16:30:14.655Z,56.90
2023-04-16T16:32:44.396Z,56.81
2023-04-16T16:35:15.119Z,57.17
2023-04-16T16:37:44.034Z,58.37
2023-04-16T16:40:13.251Z,58.56
2023-04-16T16:42:43.328Z,59.15
2023-04-16T16:45:12.911Z,59.03
2023-04-16T16:47:41.629Z,59.73
2023-04-16T16:50:12.456Z,60.27
2023-04-16T16:52:41.331Z,60.54
2023-04-16T16:55:11.465Z,60.58
2023-04-16T16:57:40.301Z,60.83
2023-04-16T17:00:14.332Z,61.65
2023-04-16T17:02:43.739Z,61.66
2023-04-16T17:05:13.682Z,62.56
2023-04-16T17:07:42.360Z,62.51
2023-04-16T17:10:13.389Z,62.35
2023-04-16T17:12:42.218Z,62.46
2023-04-16T17:15:13.308Z,63.01
2023-04-16T17:17:42.087Z,63.03
2023-04-16T17:20:12.548Z,63.98
2023-04-16T17:22:41.374Z,63.47
2023-04-16T17:25:11.070Z,64.12
2023-04-16T17:27:39.732Z,64.30
2023-04-16T17:30:10.303Z,64.83
2023-04-16T17:32:40.407Z,65.19
2023-04-16T17:35:11.027Z,65.32
2023-04-16T17:37:39.710Z,65.62
2023-04-16T17:40:10.236Z,65.61
2023-04-16T17:42:38.937Z,65.97
2023-04-16T17:45:09.466Z,66.84
2023-04-16T17:47:39.770Z,66.79
2023-04-16T17:50:10.332Z,66.69
2023-04-16T17:52:39.676Z,67.37
2023-04-16T17:55:09.307Z,67.49
2023-04-16T17:57:38.121Z,67.94
2023-04-16T18:00:11.146Z,67.97
2023-04-16T18:02:44.218Z,68.24
2023-04-16T18:05:13.603Z,68.99
2023-04-16T18:07:43.698Z,68.93
2023-04-16T18:10:12.695Z,69.31
2023-04-16T18:12:41.425Z,69.63
2023-04-16T18:15:11.981Z,70.11
2023-04-16T18:17:40.699Z,70.40
2023-04-16T18:20:12.733Z,70.91
2023-04-16T18:22:41.412Z,71.13
2023-04-16T18:25:10.704Z,71.00
2023-04-16T18:27:39.491Z,71.52
2023-04-16T18:30:18.992Z,71.72
2023-04-16T18:33:16.607Z,71.90
2023-04-16T18:35:42.398Z,72.03
2023-04-16T18:38:11.226Z,72.18
2023-04-16T18:40:40.721Z,72.14
2023-04-16T18:43:09.403Z,72.57
2023-04-16T18:45:38.353Z,72.77
2023-04-16T18:48:07.265Z,72.64
2023-04-16T18:50:36.998Z,72.79
2023-04-16T18:53:07.042Z,72.84
2023-04-16T18:55:35.990Z,72.89
2023-04-16T18:58:04.649Z,73.22
2023-04-16T19:00:33.785Z,73.15
2023-04-16T19:03:07.078Z,73.21
2023-04-16T19:05:36.373Z,73.83
2023-04-16T19:08:06.761Z,73.69
2023-04-16T19:10:35.777Z,74.46
2023-04-16T19:13:04.355Z,73.89
2023-04-16T19:15:34.917Z,74.19
2023-04-16T19:18:03.951Z,74.24
2023-04-16T19:20:35.600Z,74.82
2023-04-16T19:23:06.064Z,74.58
2023-04-16T19:25:34.961Z,74.89
2023-04-16T19:28:04.029Z,75.36
2023-04-16T19:30:33.054Z,75.76
2023-04-16T19:33:01.876Z,75.93
2023-04-16T19:35:31.109Z,76.14
2023-04-16T19:37:59.820Z,76.21
2023-04-16T19:40:30.271Z,76.40
2023-04-16T19:42:58.918Z,76.81
2023-04-16T19:45:29.140Z,76.73
2023-04-16T19:47:58.102Z,76.88
2023-04-16T19:50:27.161Z,77.30
2023-04-16T19:52:55.818Z,77.57
2023-04-16T19:55:24.766Z,77.88
2023-04-16T19:57:54.786Z,78.03
2023-04-16T20:00:23.982Z,78.46
2023-04-16T20:02:52.736Z,78.44
2023-04-16T20:05:21.777Z,78.75
2023-04-16T20:07:52.633Z,79.05
2023-04-16T20:10:22.519Z,79.17
2023-04-16T20:12:51.407Z,79.69
2023-04-16T20:15:21.759Z,79.48
2023-04-16T20:17:50.586Z,79.55
2023-04-16T20:20:19.993Z,79.76
2023-04-16T20:22:48.718Z,79.70
2023-04-16T20:25:18.889Z,80.00
2023-04-16T20:27:47.687Z,80.34
2023-04-16T20:30:16.806Z,80.24
2023-04-16T20:32:46.851Z,80.29
2023-04-16T20:35:15.941Z,80.22
2023-04-16T20:37:44.648Z,80.20
2023-04-16T20:40:15.050Z,80.33
2023-04-16T20:42:46.286Z,80.46
2023-04-16T20:45:15.516Z,80.82
2023-04-16T20:47:44.604Z,81.34
2023-04-16T20:50:15.070Z,81.20
2023-04-16T20:52:43.979Z,81.07
2023-04-16T20:55:12.945Z,81.27
2023-04-16T20:57:41.539Z,81.66
2023-04-16T21:00:12.345Z,81.82
2023-04-16T21:02:41.199Z,82.10
2023-04-16T21:05:14.176Z,81.93
2023-04-16T21:07:44.305Z,82.18
2023-04-16T21:10:20.112Z,82.32
2023-04-16T21:12:49.093Z,82.73
2023-04-16T21:15:18.291Z,82.59
2023-04-16T21:17:47.044Z,82.80
2023-04-16T21:20:16.356Z,83.12
2023-04-16T21:22:46.354Z,83.42
2023-04-16T21:25:16.064Z,83.32
2023-04-16T21:27:44.665Z,83.52
2023-04-16T21:30:15.488Z,83.84
2023-04-16T21:32:44.434Z,84.35
2023-04-16T21:35:13.336Z,84.38
2023-04-16T21:37:42.242Z,84.43
2023-04-16T21:40:13.243Z,84.71
2023-04-16T21:42:42.396Z,84.70
2023-04-16T21:45:12.238Z,84.96
2023-04-16T21:47:41.162Z,85.03
2023-04-16T21:50:11.121Z,84.84
2023-04-16T21:52:40.853Z,85.35
2023-04-16T21:55:12.174Z,85.84
2023-04-16T21:57:40.898Z,85.64
2023-04-16T22:00:13.975Z,85.55
2023-04-16T22:02:43.547Z,85.48
2023-04-16T22:05:12.755Z,85.20
2023-04-16T22:07:41.738Z,85.22
2023-04-16T22:10:15.035Z,85.24
2023-04-16T22:12:45.751Z,84.78
2023-04-16T22:15:15.670Z,84.91
2023-04-16T22:17:44.416Z,84.75
2023-04-16T22:20:13.803Z,85.34
2023-04-16T22:22:43.207Z,85.44
2023-04-16T22:25:13.696Z,85.37
2023-04-16T22:27:42.442Z,84.96
2023-04-16T22:30:13.232Z,84.95
2023-04-16T22:32:41.918Z,85.36
2023-04-16T22:35:12.582Z,85.09
2023-04-16T22:37:41.431Z,85.12
2023-04-16T22:40:11.905Z,85.53
2023-04-16T22:42:41.960Z,85.68
2023-04-16T22:45:12.724Z,85.15
2023-04-16T22:47:41.706Z,84.72
2023-04-16T22:50:12.616Z,84.70
2023-04-16T22:52:41.392Z,84.50
2023-04-16T22:55:10.844Z,84.84
2023-04-16T22:57:40.962Z,84.66
2023-04-16T23:00:15.887Z,84.55
2023-04-16T23:02:45.305Z,84.78
2023-04-16T23:05:14.428Z,85.04
2023-04-16T23:07:43.063Z,85.56
2023-04-16T23:10:12.387Z,85.56
2023-04-16T23:12:42.371Z,85.48
2023-04-16T23:15:12.369Z,85.90
2023-04-16T23:17:41.098Z,85.99
2023-04-16T23:20:12.299Z,86.67
2023-04-16T23:22:41.415Z,86.86
2023-04-16T23:25:11.159Z,86.87
2023-04-16T23:27:41.736Z,86.83
2023-04-16T23:30:11.726Z,86.46
2023-04-16T23:32:40.466Z,86.40
2023-04-16T23:35:10.916Z,86.71
2023-04-16T23:37:39.552Z,87.01
2023-04-16T23:40:10.412Z,87.21
2023-04-16T23:42:39.069Z,86.77
2023-04-16T23:45:11.171Z,87.15
2023-04-16T23:47:40.229Z,87.22
2023-04-16T23:50:10.279Z,87.19
2023-04-16T23:52:39.000Z,87.05
2023-04-16T23:55:08.826Z,87.08
2023-04-16T23:57:38.716Z,86.92
